Strona główna
METAR-TAF:

METAR-TAF

Lotnisko :

Odate-Noshiro, Japonia

Szerokość geograficzna: 40-11N, Długość geograficzna: 140-12E, wysokość: 84 m

Aktualna obserwacja pogody

Raport powstał 17 minut temu, godzina 01:00 UTC
Wiatr 8 kt od zachód
Temperatura 0°C
Wilgotność 80%
Ciśnienie 1021 hPa
Widzialność 10 km lub więcej
Mało chmury na wysokości 1000 ft
Rozproszone chmury na wysokości 2000 ft
Przerywane chmury na wysokości 4000 ft
słaby przelotny opad śniegu

METAR: RJSR 140100Z 27008KT 9999 -SHSN FEW010 SCT020 BKN040 M00/M03 Q1021

czas: 10:17 (01:17 UTC)


TAF: brakujący

Obserwacja i prognoza pogody dla ponad 4000 lotnisk (raport METAR i TAF).

Dostępne stacje oznaczono żółtymi i czerwonymi punktami na mapie.

Najedź kursorem aby zobaczyć nazwę stacji.

Kliknij aby zobaczyć obserwacje i prognozy pogody.

Aby zmienić mapę: kliknij na zielony przycisk z czarnym krzyżykiem, aby powiększyć; na zielony przycisk z myślnikiem, aby pomniejszyć; na zielone strzałki, aby przejść do map sąsiednich.


METAR-TAF: